createdAt,value
2022-11-07T00:00:11.947Z,1004.89
2022-11-07T00:01:11.937Z,1004.91
2022-11-07T00:02:12.138Z,1004.85
2022-11-07T00:03:12.239Z,1004.85
2022-11-07T00:04:11.933Z,1004.82
2022-11-07T00:05:11.899Z,1004.80
2022-11-07T00:06:11.889Z,1004.84
2022-11-07T00:07:11.879Z,1004.83
2022-11-07T00:08:11.859Z,1004.79
2022-11-07T00:09:11.883Z,1004.81
2022-11-07T00:10:11.837Z,1004.77
2022-11-07T00:11:11.830Z,1004.77
2022-11-07T00:12:11.834Z,1004.75
2022-11-07T00:13:11.994Z,1004.79
2022-11-07T00:14:11.800Z,1004.79
2022-11-07T00:15:11.790Z,1004.80
2022-11-07T00:16:11.774Z,1004.78
2022-11-07T00:17:11.779Z,1004.82
2022-11-07T00:18:11.752Z,1004.81
2022-11-07T00:19:11.757Z,1004.79
2022-11-07T00:20:11.730Z,1004.82
2022-11-07T00:21:11.716Z,1004.81
2022-11-07T00:22:11.703Z,1004.77
2022-11-07T00:23:12.030Z,1004.77
2022-11-07T00:24:11.700Z,1004.80
2022-11-07T00:25:11.676Z,1004.81
2022-11-07T00:26:11.699Z,1004.81
2022-11-07T00:27:11.759Z,1004.84
2022-11-07T00:28:11.807Z,1004.91
2022-11-07T00:29:11.647Z,1004.87
2022-11-07T00:30:11.617Z,1004.86
2022-11-07T00:31:11.609Z,1004.88
2022-11-07T00:32:11.589Z,1004.85
2022-11-07T00:33:11.837Z,1004.93
2022-11-07T00:34:11.589Z,1004.92
2022-11-07T00:35:11.561Z,1004.95
2022-11-07T00:36:11.544Z,1004.92
2022-11-07T00:37:11.542Z,1004.96
2022-11-07T00:38:11.522Z,1004.97
2022-11-07T00:39:11.532Z,1004.97
2022-11-07T00:40:11.506Z,1005.01
2022-11-07T00:41:11.489Z,1005.01
2022-11-07T00:42:11.475Z,1005.07
2022-11-07T00:43:11.908Z,1005.05
2022-11-07T00:44:11.495Z,1005.04
2022-11-07T00:45:11.445Z,1005.02
2022-11-07T00:46:11.433Z,1005.05
2022-11-07T00:47:11.427Z,1005.08
2022-11-07T00:48:11.420Z,1005.09
2022-11-07T00:49:11.419Z,1005.13
2022-11-07T00:50:11.393Z,1005.09
2022-11-07T00:51:11.377Z,1005.14
2022-11-07T00:52:11.364Z,1005.12
2022-11-07T00:53:11.639Z,1005.09
2022-11-07T00:54:11.363Z,1005.08
2022-11-07T00:55:11.330Z,1005.07
2022-11-07T00:56:11.328Z,1005.09
2022-11-07T00:57:11.309Z,1005.09
2022-11-07T00:58:14.280Z,1005.12
2022-11-07T00:59:11.306Z,1005.10
2022-11-07T01:00:11.390Z,1005.10
2022-11-07T01:01:11.329Z,1005.11
2022-11-07T01:02:11.368Z,1005.09
2022-11-07T01:03:11.375Z,1005.15
2022-11-07T01:04:11.251Z,1005.12
2022-11-07T01:05:11.227Z,1005.08
2022-11-07T01:06:11.219Z,1005.11
2022-11-07T01:07:11.207Z,1005.09
2022-11-07T01:08:11.197Z,1005.08
2022-11-07T01:09:11.211Z,1005.12
2022-11-07T01:10:11.171Z,1005.17
2022-11-07T01:11:11.157Z,1005.17
2022-11-07T01:12:11.140Z,1005.15
2022-11-07T01:13:11.411Z,1005.11
2022-11-07T01:14:11.141Z,1005.12
2022-11-07T01:15:11.123Z,1005.11
2022-11-07T01:16:11.127Z,1005.12
2022-11-07T01:17:11.085Z,1005.12
2022-11-07T01:18:11.082Z,1005.10
2022-11-07T01:19:11.060Z,1005.09
2022-11-07T01:20:11.077Z,1005.09
2022-11-07T01:21:16.271Z,1005.08
2022-11-07T01:22:12.028Z,1005.10
2022-11-07T01:23:11.019Z,1005.06
2022-11-07T01:24:11.018Z,1005.08
2022-11-07T01:25:11.014Z,1005.10
2022-11-07T01:26:10.991Z,1005.09
2022-11-07T01:27:10.982Z,1005.13
2022-11-07T01:28:10.966Z,1005.08
2022-11-07T01:29:10.955Z,1005.11
2022-11-07T01:30:10.970Z,1005.16
2022-11-07T01:31:10.935Z,1005.19
2022-11-07T01:32:10.946Z,1005.20
2022-11-07T01:33:10.949Z,1005.19
2022-11-07T01:34:10.900Z,1005.11
2022-11-07T01:35:10.904Z,1005.15
2022-11-07T01:36:10.873Z,1005.14
2022-11-07T01:37:10.866Z,1005.13
2022-11-07T01:38:10.854Z,1005.13
2022-11-07T01:39:10.847Z,1005.09
2022-11-07T01:40:10.841Z,1005.09
2022-11-07T01:41:10.816Z,1005.09
2022-11-07T01:42:10.811Z,1005.10
2022-11-07T01:43:10.794Z,1005.13
2022-11-07T01:44:10.791Z,1005.09
2022-11-07T01:45:10.786Z,1005.11
2022-11-07T01:46:10.760Z,1005.07
2022-11-07T01:47:10.748Z,1005.10
2022-11-07T01:48:10.759Z,1005.09
2022-11-07T01:49:10.728Z,1005.05
2022-11-07T01:50:10.738Z,1005.10
2022-11-07T01:51:10.713Z,1005.03
2022-11-07T01:52:10.702Z,1005.08
2022-11-07T01:53:10.680Z,1005.02
2022-11-07T01:54:10.681Z,1005.04
2022-11-07T01:55:10.683Z,1005.04
2022-11-07T01:56:10.653Z,1004.98
2022-11-07T01:57:10.642Z,1004.99
2022-11-07T01:58:10.623Z,1004.96
2022-11-07T01:59:10.616Z,1004.89
2022-11-07T02:00:10.614Z,1004.90
2022-11-07T02:01:10.600Z,1004.85
2022-11-07T02:02:10.681Z,1004.87
2022-11-07T02:03:10.581Z,1004.85
2022-11-07T02:04:10.589Z,1004.87
2022-11-07T02:05:10.562Z,1004.87
2022-11-07T02:06:10.535Z,1004.90
2022-11-07T02:07:10.532Z,1004.94
2022-11-07T02:08:10.509Z,1004.94
2022-11-07T02:09:10.502Z,1004.96
2022-11-07T02:10:10.505Z,1004.94
2022-11-07T02:11:10.485Z,1004.93
2022-11-07T02:12:10.474Z,1004.93
2022-11-07T02:13:10.456Z,1004.95
2022-11-07T02:14:10.449Z,1004.94
2022-11-07T02:15:10.453Z,1004.91
2022-11-07T02:16:10.432Z,1004.97
2022-11-07T02:17:10.421Z,1004.99
2022-11-07T02:18:10.415Z,1005.00
2022-11-07T02:19:10.389Z,1004.93
2022-11-07T02:20:10.422Z,1004.98
2022-11-07T02:21:10.377Z,1004.98
2022-11-07T02:22:10.365Z,1004.97
2022-11-07T02:23:10.348Z,1004.96
2022-11-07T02:24:10.340Z,1004.93
2022-11-07T02:25:10.338Z,1004.93
2022-11-07T02:26:10.322Z,1004.89
2022-11-07T02:27:10.309Z,1004.89
2022-11-07T02:28:10.298Z,1004.87
2022-11-07T02:29:10.280Z,1004.86
2022-11-07T02:30:10.291Z,1004.85
2022-11-07T02:31:10.255Z,1004.86
2022-11-07T02:32:10.250Z,1004.94
2022-11-07T02:33:10.234Z,1004.97
2022-11-07T02:34:10.226Z,1005.00
2022-11-07T02:35:10.222Z,1004.98
2022-11-07T02:36:10.225Z,1004.97
2022-11-07T02:37:10.196Z,1004.93
2022-11-07T02:38:10.181Z,1004.96
2022-11-07T02:39:10.170Z,1004.97
2022-11-07T02:40:10.183Z,1004.92
2022-11-07T02:41:10.157Z,1004.96
2022-11-07T02:42:10.143Z,1004.93
2022-11-07T02:43:10.119Z,1004.92
2022-11-07T02:44:10.113Z,1004.90
2022-11-07T02:45:10.110Z,1004.94
2022-11-07T02:46:10.091Z,1004.91
2022-11-07T02:47:10.083Z,1004.91
2022-11-07T02:48:10.075Z,1004.88
2022-11-07T02:49:10.061Z,1004.90
2022-11-07T02:50:10.058Z,1004.89
2022-11-07T02:51:10.029Z,1004.89
2022-11-07T02:52:10.049Z,1004.87
2022-11-07T02:53:10.014Z,1004.83
2022-11-07T02:54:10.005Z,1004.82
2022-11-07T02:55:10.007Z,1004.86
2022-11-07T02:56:09.980Z,1004.85
2022-11-07T02:57:09.971Z,1004.84
2022-11-07T02:58:09.963Z,1004.83
2022-11-07T02:59:09.950Z,1004.81
2022-11-07T03:00:09.955Z,1004.87
2022-11-07T03:01:10.039Z,1004.85
2022-11-07T03:02:10.090Z,1004.80
2022-11-07T03:03:09.913Z,1004.85
2022-11-07T03:04:09.883Z,1004.84
2022-11-07T03:05:09.976Z,1004.84
2022-11-07T03:06:09.868Z,1004.87
2022-11-07T03:07:09.852Z,1004.88
2022-11-07T03:08:09.878Z,1004.87
2022-11-07T03:09:09.836Z,1004.89
2022-11-07T03:10:09.823Z,1004.89
2022-11-07T03:11:09.807Z,1004.89
2022-11-07T03:12:09.801Z,1004.91
2022-11-07T03:13:09.783Z,1004.90
2022-11-07T03:14:09.802Z,1004.89
2022-11-07T03:15:09.880Z,1004.93
2022-11-07T03:16:09.749Z,1004.94
2022-11-07T03:17:09.745Z,1004.90
2022-11-07T03:18:09.726Z,1004.95
2022-11-07T03:19:09.746Z,1004.94
2022-11-07T03:20:09.768Z,1004.94
2022-11-07T03:21:09.704Z,1004.96
2022-11-07T03:22:09.702Z,1004.99
2022-11-07T03:23:09.685Z,1004.93
2022-11-07T03:24:09.679Z,1004.96
2022-11-07T03:25:09.664Z,1005.01
2022-11-07T03:26:09.642Z,1005.01
2022-11-07T03:27:09.626Z,1005.01
2022-11-07T03:28:09.621Z,1005.05
2022-11-07T03:29:09.624Z,1005.04
2022-11-07T03:30:09.599Z,1005.04
2022-11-07T03:31:09.595Z,1005.11
2022-11-07T03:32:09.571Z,1005.04
2022-11-07T03:33:09.566Z,1005.10
2022-11-07T03:34:09.558Z,1005.07
2022-11-07T03:35:09.539Z,1005.08
2022-11-07T03:36:09.540Z,1005.07
2022-11-07T03:37:09.520Z,1005.08
2022-11-07T03:38:09.508Z,1005.08
2022-11-07T03:39:09.506Z,1005.08
2022-11-07T03:40:09.507Z,1005.10
2022-11-07T03:41:09.475Z,1005.15
2022-11-07T03:42:09.464Z,1005.13
2022-11-07T03:43:09.451Z,1005.13
2022-11-07T03:44:09.457Z,1005.12
2022-11-07T03:45:09.423Z,1005.08
2022-11-07T03:46:09.417Z,1005.11
2022-11-07T03:47:09.409Z,1005.08
2022-11-07T03:48:09.386Z,1005.07
2022-11-07T03:49:09.435Z,1005.11
2022-11-07T03:50:09.372Z,1005.07
2022-11-07T03:51:09.364Z,1005.08
2022-11-07T03:52:09.343Z,1005.09
2022-11-07T03:53:09.340Z,1005.04
2022-11-07T03:54:09.341Z,1005.03
2022-11-07T03:55:09.395Z,1005.04
2022-11-07T03:56:09.320Z,1005.03
2022-11-07T03:57:09.293Z,1005.03
2022-11-07T03:58:09.278Z,1005.03
2022-11-07T03:59:09.279Z,1005.01
2022-11-07T04:00:09.262Z,1005.02
2022-11-07T04:01:09.245Z,1005.04
2022-11-07T04:02:09.395Z,1005.05
2022-11-07T04:03:09.224Z,1005.04
2022-11-07T04:04:09.221Z,1005.08
2022-11-07T04:05:09.207Z,1005.10
2022-11-07T04:06:09.191Z,1005.11
2022-11-07T04:07:09.182Z,1005.13
2022-11-07T04:08:09.170Z,1005.16
2022-11-07T04:09:09.183Z,1005.19
2022-11-07T04:10:09.141Z,1005.20
2022-11-07T04:11:09.142Z,1005.23
2022-11-07T04:12:09.169Z,1005.27
2022-11-07T04:13:09.108Z,1005.21
2022-11-07T04:14:09.120Z,1005.23
2022-11-07T04:15:09.181Z,1005.21
2022-11-07T04:16:12.339Z,1005.16
2022-11-07T04:17:10.068Z,1005.17
2022-11-07T04:18:09.057Z,1005.20
2022-11-07T04:19:09.062Z,1005.18
2022-11-07T04:20:09.034Z,1005.18
2022-11-07T04:21:09.021Z,1005.21
2022-11-07T04:22:09.009Z,1005.19
2022-11-07T04:23:09.005Z,1005.23
2022-11-07T04:24:09.000Z,1005.19
2022-11-07T04:25:08.979Z,1005.23
2022-11-07T04:26:08.965Z,1005.23
2022-11-07T04:27:08.952Z,1005.19
2022-11-07T04:28:08.963Z,1005.20
2022-11-07T04:29:08.950Z,1005.19
2022-11-07T04:30:08.924Z,1005.21
2022-11-07T04:31:08.937Z,1005.23
2022-11-07T04:32:08.895Z,1005.21
2022-11-07T04:33:08.891Z,1005.21
2022-11-07T04:34:08.886Z,1005.20
2022-11-07T04:35:08.871Z,1005.22
2022-11-07T04:36:08.859Z,1005.25
2022-11-07T04:37:08.845Z,1005.21
2022-11-07T04:38:08.833Z,1005.19
2022-11-07T04:39:08.831Z,1005.31
2022-11-07T04:40:08.810Z,1005.24
2022-11-07T04:41:08.802Z,1005.24
2022-11-07T04:42:08.782Z,1005.24
2022-11-07T04:43:08.776Z,1005.20
2022-11-07T04:44:08.801Z,1005.19
2022-11-07T04:45:08.757Z,1005.16
2022-11-07T04:46:08.742Z,1005.20
2022-11-07T04:47:08.733Z,1005.18
2022-11-07T04:48:08.722Z,1005.17
2022-11-07T04:49:08.722Z,1005.16
2022-11-07T04:50:08.693Z,1005.20
2022-11-07T04:51:08.723Z,1005.21
2022-11-07T04:52:08.671Z,1005.21
2022-11-07T04:53:08.658Z,1005.17
2022-11-07T04:54:08.655Z,1005.19
2022-11-07T04:55:08.657Z,1005.13
2022-11-07T04:56:08.783Z,1005.16
2022-11-07T04:57:08.613Z,1005.20
2022-11-07T04:58:08.609Z,1005.21
2022-11-07T04:59:08.621Z,1005.24
2022-11-07T05:00:08.597Z,1005.22
2022-11-07T05:01:08.588Z,1005.24
2022-11-07T05:02:08.725Z,1005.20
2022-11-07T05:03:08.614Z,1005.23
2022-11-07T05:04:08.560Z,1005.25
2022-11-07T05:05:08.527Z,1005.19
2022-11-07T05:06:08.520Z,1005.22
2022-11-07T05:07:08.503Z,1005.23
2022-11-07T05:08:08.488Z,1005.22
2022-11-07T05:09:08.507Z,1005.19
2022-11-07T05:10:12.213Z,1005.24
2022-11-07T05:11:08.463Z,1005.16
2022-11-07T05:12:08.444Z,1005.20
2022-11-07T05:13:08.442Z,1005.26
2022-11-07T05:14:08.451Z,1005.18
2022-11-07T05:15:08.471Z,1005.22
2022-11-07T05:16:08.420Z,1005.24
2022-11-07T05:17:08.393Z,1005.21
2022-11-07T05:18:08.385Z,1005.26
2022-11-07T05:19:08.390Z,1005.28
2022-11-07T05:20:08.361Z,1005.28
2022-11-07T05:21:08.349Z,1005.34
2022-11-07T05:22:08.342Z,1005.32
2022-11-07T05:23:08.324Z,1005.34
2022-11-07T05:24:08.350Z,1005.32
2022-11-07T05:25:08.309Z,1005.31
2022-11-07T05:26:08.297Z,1005.32
2022-11-07T05:27:08.277Z,1005.22
2022-11-07T05:28:08.266Z,1005.22
2022-11-07T05:29:08.269Z,1005.21
2022-11-07T05:30:08.250Z,1005.25
2022-11-07T05:31:08.237Z,1005.24
2022-11-07T05:32:08.248Z,1005.24
2022-11-07T05:33:08.211Z,1005.27
2022-11-07T05:34:12.190Z,1005.28
2022-11-07T05:35:09.194Z,1005.30
2022-11-07T05:36:08.185Z,1005.30
2022-11-07T05:37:08.174Z,1005.30
2022-11-07T05:38:08.157Z,1005.24
2022-11-07T05:39:08.159Z,1005.22
2022-11-07T05:40:08.129Z,1005.21
2022-11-07T05:41:08.126Z,1005.20
2022-11-07T05:42:08.134Z,1005.23
2022-11-07T05:43:08.105Z,1005.24
2022-11-07T05:44:08.110Z,1005.28
2022-11-07T05:45:08.083Z,1005.29
2022-11-07T05:46:08.070Z,1005.28
2022-11-07T05:47:08.061Z,1005.30
2022-11-07T05:48:08.169Z,1005.28
2022-11-07T05:49:08.030Z,1005.25
2022-11-07T05:50:08.044Z,1005.34
2022-11-07T05:51:08.009Z,1005.27
2022-11-07T05:52:07.996Z,1005.31
2022-11-07T05:53:08.088Z,1005.25
2022-11-07T05:54:07.994Z,1005.24
2022-11-07T05:55:07.974Z,1005.31
2022-11-07T05:56:07.951Z,1005.34
2022-11-07T05:57:07.953Z,1005.32
2022-11-07T05:58:07.930Z,1005.29
2022-11-07T05:59:08.026Z,1005.29
2022-11-07T06:00:07.905Z,1005.27
2022-11-07T06:01:07.893Z,1005.30
2022-11-07T06:02:08.112Z,1005.34
2022-11-07T06:03:07.999Z,1005.36
2022-11-07T06:04:07.898Z,1005.33
2022-11-07T06:05:07.859Z,1005.39
2022-11-07T06:06:07.846Z,1005.37
2022-11-07T06:07:07.836Z,1005.34
2022-11-07T06:08:07.846Z,1005.37
2022-11-07T06:09:07.832Z,1005.36
2022-11-07T06:10:07.805Z,1005.32
2022-11-07T06:11:07.793Z,1005.33
2022-11-07T06:12:07.781Z,1005.36
2022-11-07T06:13:07.767Z,1005.37
2022-11-07T06:14:07.799Z,1005.38
2022-11-07T06:15:07.740Z,1005.41
2022-11-07T06:16:07.749Z,1005.38
2022-11-07T06:17:08.418Z,1005.37
2022-11-07T06:18:07.705Z,1005.39
2022-11-07T06:19:07.713Z,1005.41
2022-11-07T06:20:07.707Z,1005.39
2022-11-07T06:21:07.699Z,1005.40
2022-11-07T06:22:07.657Z,1005.38
2022-11-07T06:23:07.650Z,1005.39
2022-11-07T06:24:12.372Z,1005.36
2022-11-07T06:25:08.632Z,1005.44
2022-11-07T06:26:07.629Z,1005.46
2022-11-07T06:27:07.623Z,1005.43
2022-11-07T06:28:07.592Z,1005.46
2022-11-07T06:29:07.592Z,1005.43
2022-11-07T06:30:07.577Z,1005.47
2022-11-07T06:31:07.572Z,1005.52
2022-11-07T06:32:07.550Z,1005.50
2022-11-07T06:33:07.547Z,1005.49
2022-11-07T06:34:07.549Z,1005.49
2022-11-07T06:35:07.522Z,1005.54
2022-11-07T06:36:07.535Z,1005.50
2022-11-07T06:37:07.492Z,1005.56
2022-11-07T06:38:07.532Z,1005.57
2022-11-07T06:39:07.512Z,1005.53
2022-11-07T06:40:07.458Z,1005.56
2022-11-07T06:41:07.459Z,1005.57
2022-11-07T06:42:07.468Z,1005.53
2022-11-07T06:43:07.430Z,1005.57
2022-11-07T06:44:07.435Z,1005.58
2022-11-07T06:45:07.418Z,1005.66
2022-11-07T06:46:07.406Z,1005.58
2022-11-07T06:47:07.402Z,1005.58
2022-11-07T06:48:07.379Z,1005.59
2022-11-07T06:49:07.372Z,1005.57
2022-11-07T06:50:07.358Z,1005.57
2022-11-07T06:51:07.335Z,1005.54
2022-11-07T06:52:07.346Z,1005.63
2022-11-07T06:53:07.323Z,1005.68
2022-11-07T06:54:07.327Z,1005.58
2022-11-07T06:55:07.400Z,1005.59
2022-11-07T06:56:07.280Z,1005.60
2022-11-07T06:57:07.274Z,1005.68
2022-11-07T06:58:07.267Z,1005.59
2022-11-07T06:59:07.294Z,1005.60
2022-11-07T07:00:07.236Z,1005.65
2022-11-07T07:01:07.264Z,1005.67
2022-11-07T07:02:07.272Z,1005.66
2022-11-07T07:03:07.256Z,1005.62
2022-11-07T07:04:07.212Z,1005.65
2022-11-07T07:05:07.177Z,1005.61
2022-11-07T07:06:07.175Z,1005.75
2022-11-07T07:07:07.155Z,1005.67
2022-11-07T07:08:07.180Z,1005.69
2022-11-07T07:09:07.152Z,1005.72
2022-11-07T07:10:07.133Z,1005.77
2022-11-07T07:11:07.119Z,1005.71
2022-11-07T07:12:07.111Z,1005.76
2022-11-07T07:13:07.085Z,1005.79
2022-11-07T07:14:11.373Z,1005.81
2022-11-07T07:15:07.068Z,1005.82
2022-11-07T07:16:07.061Z,1005.87
2022-11-07T07:17:07.047Z,1005.80
2022-11-07T07:18:07.038Z,1005.82
2022-11-07T07:19:07.061Z,1005.88
2022-11-07T07:20:07.015Z,1005.87
2022-11-07T07:21:07.006Z,1005.87
2022-11-07T07:22:06.994Z,1005.87
2022-11-07T07:23:06.975Z,1005.90
2022-11-07T07:24:07.106Z,1005.91
2022-11-07T07:25:06.964Z,1005.91
2022-11-07T07:26:06.954Z,1005.97
2022-11-07T07:27:06.942Z,1005.97
2022-11-07T07:28:06.926Z,1005.99
2022-11-07T07:29:06.926Z,1005.95
2022-11-07T07:30:06.925Z,1005.99
2022-11-07T07:31:07.060Z,1006.03
2022-11-07T07:32:06.876Z,1006.08
2022-11-07T07:33:06.877Z,1006.09
2022-11-07T07:34:06.883Z,1006.12
2022-11-07T07:35:06.882Z,1006.09
2022-11-07T07:36:06.838Z,1006.12
2022-11-07T07:37:06.825Z,1006.19
2022-11-07T07:38:06.818Z,1006.18
2022-11-07T07:39:06.829Z,1006.19
2022-11-07T07:40:06.905Z,1006.16
2022-11-07T07:41:06.783Z,1006.19
2022-11-07T07:42:06.770Z,1006.16
2022-11-07T07:43:06.755Z,1006.16
2022-11-07T07:44:06.766Z,1006.18
2022-11-07T07:45:06.737Z,1006.20
2022-11-07T07:46:06.716Z,1006.23
2022-11-07T07:47:11.043Z,1006.21
2022-11-07T07:48:06.701Z,1006.24
2022-11-07T07:49:06.699Z,1006.23
2022-11-07T07:50:06.674Z,1006.20
2022-11-07T07:51:06.670Z,1006.21
2022-11-07T07:52:06.668Z,1006.21
2022-11-07T07:53:09.221Z,1006.19
2022-11-07T07:54:06.648Z,1006.19
2022-11-07T07:55:06.625Z,1006.18
2022-11-07T07:56:06.725Z,1006.17
2022-11-07T07:57:06.593Z,1006.14
2022-11-07T07:58:06.586Z,1006.09
2022-11-07T07:59:06.596Z,1006.19
2022-11-07T08:00:06.560Z,1006.16
2022-11-07T08:01:06.645Z,1006.25
2022-11-07T08:02:06.628Z,1006.23
2022-11-07T08:03:06.527Z,1006.18
2022-11-07T08:04:06.542Z,1006.16
2022-11-07T08:05:06.511Z,1006.17
2022-11-07T08:06:06.502Z,1006.14
2022-11-07T08:07:06.488Z,1006.18
2022-11-07T08:08:06.473Z,1006.17
2022-11-07T08:09:06.473Z,1006.17
2022-11-07T08:10:35.117Z,1006.23
2022-11-07T08:11:07.441Z,1006.26
2022-11-07T08:12:06.550Z,1006.23
2022-11-07T08:13:06.427Z,1006.25
2022-11-07T08:14:06.431Z,1006.23
2022-11-07T08:15:06.421Z,1006.22
2022-11-07T08:16:06.394Z,1006.22
2022-11-07T08:17:06.371Z,1006.32
2022-11-07T08:18:06.371Z,1006.22
2022-11-07T08:19:06.362Z,1006.26
2022-11-07T08:20:06.339Z,1006.27
2022-11-07T08:21:06.421Z,1006.22
2022-11-07T08:22:06.323Z,1006.27
2022-11-07T08:23:09.873Z,1006.29
2022-11-07T08:24:07.323Z,1006.27
2022-11-07T08:25:06.280Z,1006.31
2022-11-07T08:26:06.282Z,1006.28
2022-11-07T08:27:06.267Z,1006.27
2022-11-07T08:28:06.370Z,1006.35
2022-11-07T08:29:06.250Z,1006.38
2022-11-07T08:30:06.231Z,1006.35
2022-11-07T08:31:06.221Z,1006.32
2022-11-07T08:32:06.213Z,1006.33
2022-11-07T08:33:06.243Z,1006.33
2022-11-07T08:34:06.471Z,1006.35
2022-11-07T08:35:06.177Z,1006.32
2022-11-07T08:36:06.161Z,1006.36
2022-11-07T08:37:06.153Z,1006.32
2022-11-07T08:38:06.140Z,1006.34
2022-11-07T08:39:06.150Z,1006.33
2022-11-07T08:40:06.113Z,1006.37
2022-11-07T08:41:06.102Z,1006.32
2022-11-07T08:42:06.097Z,1006.36
2022-11-07T08:43:06.087Z,1006.34
2022-11-07T08:44:06.117Z,1006.35
2022-11-07T08:45:06.072Z,1006.33
2022-11-07T08:46:06.051Z,1006.41
2022-11-07T08:47:08.610Z,1006.42
2022-11-07T08:48:06.032Z,1006.52
2022-11-07T08:49:06.031Z,1006.40
2022-11-07T08:50:06.006Z,1006.42
2022-11-07T08:51:05.997Z,1006.42
2022-11-07T08:52:05.984Z,1006.47
2022-11-07T08:53:05.980Z,1006.53
2022-11-07T08:54:05.984Z,1006.47
2022-11-07T08:55:05.946Z,1006.51
2022-11-07T08:56:05.940Z,1006.51
2022-11-07T08:57:05.918Z,1006.49
2022-11-07T08:58:05.910Z,1006.55
2022-11-07T08:59:05.919Z,1006.50
2022-11-07T09:00:05.941Z,1006.50
2022-11-07T09:01:05.940Z,1006.51
2022-11-07T09:04:06.991Z,1006.52
2022-11-07T09:05:05.838Z,1006.52
2022-11-07T09:06:05.823Z,1006.49
2022-11-07T09:07:05.811Z,1006.51
2022-11-07T09:08:05.806Z,1006.51
2022-11-07T09:09:05.803Z,1006.56
2022-11-07T09:10:05.782Z,1006.50
2022-11-07T09:11:05.773Z,1006.51
2022-11-07T09:12:05.760Z,1006.48
2022-11-07T09:13:05.746Z,1006.49
2022-11-07T09:14:05.743Z,1006.42
2022-11-07T09:15:05.718Z,1006.47
2022-11-07T09:16:05.773Z,1006.54
2022-11-07T09:17:05.701Z,1006.52
2022-11-07T09:18:05.688Z,1006.55
2022-11-07T09:19:05.685Z,1006.51
2022-11-07T09:20:05.671Z,1006.50
2022-11-07T09:21:05.650Z,1006.58
2022-11-07T09:22:05.650Z,1006.52
2022-11-07T09:23:05.629Z,1006.60
2022-11-07T09:24:05.634Z,1006.56
2022-11-07T09:25:05.608Z,1006.62
2022-11-07T09:26:05.594Z,1006.58
2022-11-07T09:27:05.588Z,1006.59
2022-11-07T09:28:05.589Z,1006.58
2022-11-07T09:29:05.572Z,1006.58
2022-11-07T09:30:05.555Z,1006.59
2022-11-07T09:31:05.548Z,1006.62
2022-11-07T09:32:30.496Z,1006.59
2022-11-07T09:33:06.520Z,1006.61
2022-11-07T09:34:05.533Z,1006.63
2022-11-07T09:35:05.498Z,1006.58
2022-11-07T09:36:05.488Z,1006.58
2022-11-07T09:37:05.471Z,1006.57
2022-11-07T09:38:05.463Z,1006.59
2022-11-07T09:39:05.670Z,1006.61
2022-11-07T09:40:05.448Z,1006.60
2022-11-07T09:41:05.433Z,1006.63
2022-11-07T09:42:05.412Z,1006.60
2022-11-07T09:43:05.407Z,1006.64
2022-11-07T09:44:05.432Z,1006.63
2022-11-07T09:45:05.378Z,1006.61
2022-11-07T09:46:05.370Z,1006.64
2022-11-07T09:47:05.362Z,1006.62
2022-11-07T09:48:05.376Z,1006.69
2022-11-07T09:49:05.347Z,1006.66
2022-11-07T09:50:05.338Z,1006.69
2022-11-07T09:51:05.321Z,1006.73
2022-11-07T09:52:05.304Z,1006.73
2022-11-07T09:53:05.292Z,1006.76
2022-11-07T09:54:05.302Z,1006.80
2022-11-07T09:55:05.271Z,1006.80
2022-11-07T09:56:05.270Z,1006.83
2022-11-07T09:57:05.253Z,1006.81
2022-11-07T09:58:05.320Z,1006.80
2022-11-07T09:59:09.686Z,1006.85
2022-11-07T10:00:06.207Z,1006.88
2022-11-07T10:01:05.261Z,1006.88
2022-11-07T10:02:05.266Z,1006.89
2022-11-07T10:03:05.184Z,1006.88
2022-11-07T10:04:24.125Z,1006.91
2022-11-07T10:05:06.160Z,1006.91
2022-11-07T10:06:05.152Z,1006.90
2022-11-07T10:07:05.136Z,1006.94
2022-11-07T10:08:05.117Z,1006.98
2022-11-07T10:09:05.124Z,1007.00
2022-11-07T10:10:05.110Z,1006.95
2022-11-07T10:11:05.098Z,1007.04
2022-11-07T10:12:05.075Z,1006.89
2022-11-07T10:13:05.063Z,1006.92
2022-11-07T10:14:05.076Z,1006.89
2022-11-07T10:15:05.044Z,1006.95
2022-11-07T10:16:05.035Z,1006.90
2022-11-07T10:17:05.025Z,1006.93
2022-11-07T10:18:05.015Z,1006.96
2022-11-07T10:19:04.996Z,1006.96
2022-11-07T10:20:05.032Z,1006.94
2022-11-07T10:21:35.984Z,1006.92
2022-11-07T10:22:05.975Z,1006.96
2022-11-07T10:23:04.959Z,1006.94
2022-11-07T10:24:04.951Z,1006.93
2022-11-07T10:25:04.937Z,1006.95
2022-11-07T10:26:04.921Z,1006.98
2022-11-07T10:27:04.918Z,1006.96
2022-11-07T10:28:04.902Z,1006.96
2022-11-07T10:29:04.900Z,1006.92
2022-11-07T10:30:04.870Z,1006.95
2022-11-07T10:31:04.897Z,1006.97
2022-11-07T10:32:04.850Z,1006.97
2022-11-07T10:33:04.843Z,1006.97
2022-11-07T10:34:04.846Z,1006.91
2022-11-07T10:35:04.817Z,1006.88
2022-11-07T10:36:04.840Z,1006.90
2022-11-07T10:37:04.809Z,1006.92
2022-11-07T10:38:04.808Z,1006.92
2022-11-07T10:39:04.785Z,1006.91
2022-11-07T10:40:09.612Z,1006.94
2022-11-07T10:41:05.757Z,1006.96
2022-11-07T10:42:04.740Z,1006.87
2022-11-07T10:43:04.730Z,1006.96
2022-11-07T10:44:04.731Z,1006.97
2022-11-07T10:45:04.706Z,1006.95
2022-11-07T10:46:04.700Z,1006.87
2022-11-07T10:47:04.697Z,1006.82
2022-11-07T10:48:04.688Z,1006.86
2022-11-07T10:49:04.687Z,1006.87
2022-11-07T10:50:04.648Z,1006.89
2022-11-07T10:51:04.648Z,1006.85
2022-11-07T10:52:04.649Z,1006.93
2022-11-07T10:53:04.623Z,1006.91
2022-11-07T10:54:04.652Z,1006.84
2022-11-07T10:55:04.611Z,1006.92
2022-11-07T10:56:04.586Z,1006.86
2022-11-07T10:57:04.641Z,1006.84
2022-11-07T10:58:04.565Z,1006.77
2022-11-07T10:59:05.034Z,1006.76
2022-11-07T11:00:04.537Z,1006.76
2022-11-07T11:01:04.640Z,1006.81
2022-11-07T11:02:04.619Z,1006.78
2022-11-07T11:03:04.519Z,1006.80
2022-11-07T11:04:04.506Z,1006.76
2022-11-07T11:05:04.499Z,1006.70
2022-11-07T11:06:04.468Z,1006.72
2022-11-07T11:07:04.460Z,1006.65
2022-11-07T11:08:04.483Z,1006.70
2022-11-07T11:09:04.452Z,1006.69
2022-11-07T11:10:04.431Z,1006.68
2022-11-07T11:11:04.427Z,1006.65
2022-11-07T11:12:04.402Z,1006.69
2022-11-07T11:13:04.393Z,1006.66
2022-11-07T11:14:04.403Z,1006.70
2022-11-07T11:15:04.377Z,1006.65
2022-11-07T11:16:05.856Z,1006.67
2022-11-07T11:17:04.406Z,1006.73
2022-11-07T11:18:04.334Z,1006.87
2022-11-07T11:19:04.346Z,1006.68
2022-11-07T11:20:04.313Z,1006.78
2022-11-07T11:21:04.304Z,1006.66
2022-11-07T11:22:09.444Z,1006.74
2022-11-07T11:23:05.278Z,1006.75
2022-11-07T11:24:04.412Z,1006.72
2022-11-07T11:25:04.263Z,1006.77
2022-11-07T11:26:04.253Z,1006.74
2022-11-07T11:27:04.247Z,1006.71
2022-11-07T11:28:04.232Z,1006.69
2022-11-07T11:29:04.212Z,1006.67
2022-11-07T11:30:04.213Z,1006.75
2022-11-07T11:31:04.198Z,1006.74
2022-11-07T11:32:04.179Z,1006.70
2022-11-07T11:33:04.175Z,1006.66
2022-11-07T11:34:04.167Z,1006.76
2022-11-07T11:35:04.147Z,1006.65
2022-11-07T11:36:04.143Z,1006.67
2022-11-07T11:37:04.133Z,1006.63
2022-11-07T11:38:04.112Z,1006.69
2022-11-07T11:39:04.125Z,1006.78
2022-11-07T11:40:04.116Z,1006.65
2022-11-07T11:41:10.406Z,1006.63
2022-11-07T11:42:05.071Z,1006.67
2022-11-07T11:43:04.064Z,1006.58
2022-11-07T11:44:04.065Z,1006.54
2022-11-07T11:45:04.035Z,1006.54
2022-11-07T11:46:04.019Z,1006.68
2022-11-07T11:47:04.010Z,1006.63
2022-11-07T11:48:04.002Z,1006.60
2022-11-07T11:49:03.992Z,1006.59
2022-11-07T11:50:03.984Z,1006.65
2022-11-07T11:51:03.964Z,1006.61
2022-11-07T11:52:03.949Z,1006.56
2022-11-07T11:53:03.937Z,1006.56
2022-11-07T11:54:03.949Z,1006.64
2022-11-07T11:55:03.922Z,1006.69
2022-11-07T11:56:03.939Z,1006.68
2022-11-07T11:57:03.899Z,1006.73
2022-11-07T11:58:03.884Z,1006.67
2022-11-07T11:59:03.926Z,1006.71
2022-11-07T12:00:03.861Z,1006.67
2022-11-07T12:01:03.858Z,1006.68
2022-11-07T12:02:03.880Z,1006.69
2022-11-07T12:03:03.831Z,1006.65
2022-11-07T12:04:07.068Z,1006.67
2022-11-07T12:05:03.817Z,1006.62
2022-11-07T12:06:03.795Z,1006.63
2022-11-07T12:07:03.780Z,1006.66